Time;durP1;ratioP1;P1;durP2;ratioP2;P2;SDS_P1;SDS_P2;PMS_P1;PMS_P2;Temp;Humidity;BMP_temperature;BMP_pressure;BME280_temperature;BME280_humidity;BME280_pressure;Samples;Min_cycle;Max_cycle;Signal;HPM_P1;HPM_P2
2023/10/20 00:01:56;;;;;;;11.27;8.87;;;15.30;99.90;;;;;;5012988;28;20164;-75
2023/10/20 00:04:21;;;;;;;12.20;7.67;;;15.30;99.90;;;;;;4995459;28;20521;-76
2023/10/20 00:06:47;;;;;;;10.03;8.10;;;15.30;99.90;;;;;;5012595;28;20215;-75
2023/10/20 00:09:14;;;;;;;10.43;8.00;;;15.30;99.90;;;;;;5012835;28;20176;-76
2023/10/20 00:11:41;;;;;;;10.77;8.90;;;15.40;99.90;;;;;;5012587;28;20168;-76
2023/10/20 00:14:07;;;;;;;11.20;8.00;;;15.30;99.90;;;;;;5012581;28;20407;-75
2023/10/20 00:16:33;;;;;;;10.20;9.10;;;15.40;99.90;;;;;;5012844;28;20840;-76
2023/10/20 00:19:01;;;;;;;14.67;9.30;;;15.30;99.90;;;;;;5012680;28;20698;-76
2023/10/20 00:21:26;;;;;;;10.13;8.80;;;15.30;99.90;;;;;;5011497;28;20180;-76
2023/10/20 00:23:52;;;;;;;11.17;8.83;;;15.30;99.90;;;;;;5012865;28;20411;-76
2023/10/20 00:26:18;;;;;;;12.93;9.20;;;15.30;99.90;;;;;;5012758;28;20215;-76
2023/10/20 00:28:43;;;;;;;10.30;7.53;;;15.30;99.90;;;;;;5012706;28;20224;-77
2023/10/20 00:31:11;;;;;;;12.00;8.60;;;15.30;99.90;;;;;;5012563;28;20407;-75
2023/10/20 00:33:39;;;;;;;10.57;8.70;;;15.30;99.90;;;;;;5012784;28;20169;-76
2023/10/20 00:36:08;;;;;;;14.60;9.03;;;15.30;99.90;;;;;;5012467;28;20758;-76
2023/10/20 00:38:33;;;;;;;12.53;8.40;;;15.30;99.90;;;;;;5012531;28;20411;-76
2023/10/20 00:40:59;;;;;;;11.07;8.40;;;15.30;99.90;;;;;;5012665;28;20410;-76
2023/10/20 00:43:38;;;;;;;9.73;8.33;;;15.40;99.90;;;;;;4995182;28;20233;-76
2023/10/20 00:46:08;;;;;;;11.50;8.37;;;15.30;99.90;;;;;;5012472;28;20815;-76
2023/10/20 00:48:37;;;;;;;9.87;8.10;;;15.30;99.90;;;;;;5012508;28;20842;-76
2023/10/20 00:51:07;;;;;;;14.90;8.70;;;15.30;99.90;;;;;;5011335;28;20407;-76
2023/10/20 00:53:36;;;;;;;10.90;8.47;;;15.30;99.90;;;;;;5012463;28;20407;-76
2023/10/20 00:56:04;;;;;;;11.13;8.53;;;15.40;99.90;;;;;;5012575;28;20498;-77
2023/10/20 00:58:31;;;;;;;15.10;9.50;;;15.40;99.90;;;;;;4994993;28;20443;-76
2023/10/20 01:00:56;;;;;;;12.47;9.00;;;15.40;99.90;;;;;;4994600;28;20439;-76
2023/10/20 01:03:22;;;;;;;12.93;9.70;;;15.40;99.90;;;;;;5012573;28;20993;-76
2023/10/20 01:05:48;;;;;;;22.60;10.77;;;15.30;99.90;;;;;;5011195;28;20180;-75
2023/10/20 01:08:14;;;;;;;11.70;8.93;;;15.30;99.90;;;;;;4994983;28;20211;-76
2023/10/20 01:10:40;;;;;;;11.90;9.73;;;15.30;99.90;;;;;;5012325;28;20513;-77
2023/10/20 01:13:06;;;;;;;15.27;11.10;;;15.30;99.90;;;;;;5012347;28;20418;-76
2023/10/20 01:15:32;;;;;;;11.37;9.93;;;15.40;99.90;;;;;;5011350;28;20275;-76
2023/10/20 01:17:58;;;;;;;13.20;9.83;;;15.40;99.90;;;;;;5010940;28;20202;-76
2023/10/20 01:20:23;;;;;;;11.00;9.57;;;15.40;99.90;;;;;;5012728;28;20506;-76
2023/10/20 01:22:49;;;;;;;11.63;8.47;;;15.40;99.90;;;;;;5015829;28;20415;-76
2023/10/20 01:25:15;;;;;;;10.93;8.57;;;15.40;99.90;;;;;;5015371;28;20587;-76
2023/10/20 01:27:40;;;;;;;12.73;9.67;;;15.40;99.90;;;;;;5016134;28;20199;-76
2023/10/20 01:30:07;;;;;;;12.53;9.60;;;15.50;99.90;;;;;;5015766;28;20310;-76
2023/10/20 01:32:32;;;;;;;12.93;9.23;;;15.50;99.90;;;;;;5016081;28;20160;-76
2023/10/20 01:34:58;;;;;;;10.27;8.97;;;15.50;99.90;;;;;;5016076;28;20411;-76
2023/10/20 01:37:23;;;;;;;18.67;10.13;;;15.50;99.90;;;;;;5015822;28;20582;-76
2023/10/20 01:39:50;;;;;;;12.00;9.00;;;15.50;99.90;;;;;;4998293;28;20185;-76
2023/10/20 01:42:15;;;;;;;13.23;9.00;;;15.60;99.90;;;;;;5016192;28;20238;-76
2023/10/20 01:44:41;;;;;;;11.57;8.70;;;15.60;99.90;;;;;;5015780;28;20414;-77
2023/10/20 01:47:06;;;;;;;10.33;8.10;;;15.70;99.90;;;;;;5015877;28;20216;-76
2023/10/20 01:49:32;;;;;;;11.80;10.30;;;15.70;99.90;;;;;;5016039;28;20164;-76
2023/10/20 01:51:57;;;;;;;10.17;8.30;;;15.70;99.90;;;;;;5015641;28;20178;-76
2023/10/20 01:54:24;;;;;;;11.43;8.33;;;15.70;99.90;;;;;;5015609;28;20168;-76
2023/10/20 01:56:50;;;;;;;10.00;9.00;;;15.70;99.90;;;;;;5015288;28;20246;-76
2023/10/20 01:59:15;;;;;;;10.10;8.50;;;15.70;99.90;;;;;;5015143;28;20419;-77
2023/10/20 02:01:41;;;;;;;12.20;8.40;;;15.80;99.90;;;;;;5015061;28;20234;-76
2023/10/20 02:04:07;;;;;;;9.77;8.00;;;15.80;99.90;;;;;;5015504;28;20179;-75
2023/10/20 02:06:33;;;;;;;9.40;8.37;;;15.80;99.90;;;;;;5015322;28;20598;-77
2023/10/20 02:08:59;;;;;;;9.00;7.83;;;15.80;99.90;;;;;;5015942;28;20412;-75
2023/10/20 02:11:25;;;;;;;9.30;8.20;;;15.80;99.90;;;;;;4998231;28;20741;-75
2023/10/20 02:13:50;;;;;;;9.43;7.23;;;15.80;99.90;;;;;;5015677;28;20187;-75
2023/10/20 02:16:16;;;;;;;11.23;8.50;;;15.90;99.90;;;;;;5015071;28;20546;-76
2023/10/20 02:18:41;;;;;;;7.27;6.57;;;15.90;99.90;;;;;;5014932;28;20243;-76
2023/10/20 02:21:09;;;;;;;15.10;8.53;;;15.90;99.90;;;;;;5014783;28;20587;-76
2023/10/20 02:23:36;;;;;;;9.90;7.90;;;15.90;99.90;;;;;;5014769;28;20168;-76
2023/10/20 02:26:06;;;;;;;11.53;6.60;;;15.90;99.90;;;;;;4997272;28;20434;-76
2023/10/20 02:28:36;;;;;;;10.43;7.33;;;15.90;99.90;;;;;;5013525;28;20493;-77
2023/10/20 02:31:10;;;;;;;10.80;8.10;;;15.90;99.90;;;;;;5014367;28;20495;-75
2023/10/20 02:33:35;;;;;;;9.40;7.33;;;16.00;99.90;;;;;;5013586;28;20395;-76
2023/10/20 02:36:01;;;;;;;7.57;6.57;;;16.00;99.90;;;;;;5014335;28;20442;-76
2023/10/20 02:38:26;;;;;;;6.57;5.73;;;16.00;99.90;;;;;;5013427;28;20181;-76
2023/10/20 02:40:53;;;;;;;8.07;6.43;;;16.00;99.90;;;;;;5014431;28;20172;-76
2023/10/20 02:43:20;;;;;;;9.10;7.00;;;16.00;99.90;;;;;;5014546;28;20172;-76
2023/10/20 02:45:51;;;;;;;7.23;6.50;;;16.00;99.90;;;;;;5014421;28;20411;-76
2023/10/20 02:48:16;;;;;;;12.17;8.03;;;15.90;99.90;;;;;;5014197;28;20467;-76
2023/10/20 02:50:42;;;;;;;6.37;5.73;;;16.00;99.90;;;;;;5014079;28;20454;-76
2023/10/20 02:53:08;;;;;;;6.90;6.13;;;16.00;99.90;;;;;;5013215;28;20176;-75
2023/10/20 02:55:33;;;;;;;8.20;6.60;;;15.90;99.90;;;;;;5012828;28;20176;-76
2023/10/20 02:58:00;;;;;;;6.93;6.27;;;15.90;99.90;;;;;;5014134;28;20219;-76
2023/10/20 03:00:26;;;;;;;7.80;6.60;;;15.90;99.90;;;;;;5014222;28;20658;-76
2023/10/20 03:02:53;;;;;;;12.77;9.90;;;15.90;99.90;;;;;;5014277;28;20892;-75
2023/10/20 03:05:20;;;;;;;7.53;5.60;;;15.90;99.90;;;;;;5014459;28;20430;-77
2023/10/20 03:07:49;;;;;;;6.20;5.00;;;16.00;99.90;;;;;;5013645;28;20455;-76
2023/10/20 03:10:15;;;;;;;5.27;4.80;;;16.00;99.90;;;;;;5014112;28;20426;-76
2023/10/20 03:12:40;;;;;;;5.60;4.60;;;16.00;99.90;;;;;;5014107;28;20407;-76
2023/10/20 03:15:08;;;;;;;7.70;4.70;;;15.90;99.90;;;;;;5012829;28;20250;-76
2023/10/20 03:17:34;;;;;;;5.70;5.10;;;15.90;99.90;;;;;;5013825;28;20188;-75
2023/10/20 03:20:00;;;;;;;5.47;4.97;;;15.90;99.90;;;;;;5013721;28;20457;-76
2023/10/20 03:22:25;;;;;;;5.83;4.53;;;15.80;99.90;;;;;;5013932;28;20199;-75
2023/10/20 03:24:51;;;;;;;4.10;3.80;;;15.80;99.90;;;;;;5014142;28;20211;-76
2023/10/20 03:27:17;;;;;;;6.90;4.83;;;15.80;99.90;;;;;;5013196;28;20559;-76
2023/10/20 03:29:42;;;;;;;5.03;4.30;;;15.70;99.90;;;;;;5013629;28;20255;-76
2023/10/20 03:32:08;;;;;;;4.87;4.40;;;15.60;99.90;;;;;;5013715;28;20936;-76
2023/10/20 03:34:33;;;;;;;5.70;3.53;;;15.70;99.90;;;;;;5013825;28;20164;-76
2023/10/20 03:37:00;;;;;;;9.63;3.80;;;15.70;99.90;;;;;;5013438;28;20208;-77
2023/10/20 03:39:27;;;;;;;4.40;4.00;;;15.70;99.90;;;;;;4995757;28;20203;-76
2023/10/20 03:41:53;;;;;;;4.87;4.30;;;15.70;99.90;;;;;;5013398;28;20415;-76
2023/10/20 03:44:22;;;;;;;5.10;4.60;;;15.70;99.90;;;;;;5013091;28;20407;-76
2023/10/20 03:46:56;;;;;;;4.67;4.27;;;15.70;99.90;;;;;;5013298;28;20767;-76
2023/10/20 03:49:22;;;;;;;4.13;3.83;;;15.70;99.90;;;;;;4995610;28;20416;-76
2023/10/20 03:51:50;;;;;;;5.03;3.53;;;15.70;99.90;;;;;;4995786;28;20407;-76
2023/10/20 03:54:16;;;;;;;5.70;4.70;;;15.70;99.90;;;;;;5012986;28;20243;-77
2023/10/20 03:56:42;;;;;;;4.63;4.03;;;15.80;99.90;;;;;;5012828;28;20426;-76
2023/10/20 03:59:09;;;;;;;5.77;5.17;;;15.70;99.90;;;;;;5012846;28;20418;-76
2023/10/20 04:01:35;;;;;;;7.53;4.40;;;15.70;99.90;;;;;;5012834;28;20403;-76
2023/10/20 04:04:00;;;;;;;3.87;3.50;;;15.70;99.90;;;;;;5012986;28;20400;-76
2023/10/20 04:06:26;;;;;;;4.73;4.20;;;15.70;99.90;;;;;;5012961;28;20723;-76
2023/10/20 04:08:51;;;;;;;6.37;4.70;;;15.70;99.90;;;;;;5013037;28;20204;-75
2023/10/20 04:11:17;;;;;;;6.60;4.70;;;15.80;99.90;;;;;;5011528;28;20259;-75
2023/10/20 04:13:43;;;;;;;5.57;4.80;;;15.70;99.90;;;;;;5012798;28;20164;-75
2023/10/20 04:16:14;;;;;;;6.50;5.87;;;15.70;99.90;;;;;;4995416;28;20171;-75
2023/10/20 04:18:40;;;;;;;6.90;6.13;;;15.70;99.90;;;;;;5012613;28;20415;-75
2023/10/20 04:21:06;;;;;;;8.80;6.73;;;15.70;99.90;;;;;;4994872;28;20404;-77
2023/10/20 04:23:31;;;;;;;7.67;6.87;;;15.70;99.90;;;;;;5012726;28;20411;-77
2023/10/20 04:25:58;;;;;;;6.17;5.20;;;15.70;99.90;;;;;;4995203;28;20234;-75
2023/10/20 04:28:32;;;;;;;6.43;5.83;;;15.70;99.90;;;;;;5012463;28;20235;-75
2023/10/20 04:45:42;;;;;;;4.47;4.03;;;15.70;99.90;;;;;;4971009;28;20447;-75
2023/10/20 04:53:12;;;;;;;6.70;5.20;;;15.80;99.90;;;;;;5012679;28;20453;-75
2023/10/20 04:58:34;;;;;;;3.90;3.60;;;15.80;99.90;;;;;;5016438;28;20461;-75
2023/10/20 05:01:07;;;;;;;8.10;4.33;;;15.80;99.90;;;;;;5016223;28;20413;-75
2023/10/20 05:03:45;;;;;;;6.87;4.90;;;15.90;99.90;;;;;;5016408;28;20429;-75
2023/10/20 05:06:26;;;;;;;5.00;4.40;;;15.90;99.90;;;;;;5015963;28;20431;-75
2023/10/20 05:08:53;;;;;;;5.20;4.77;;;15.90;99.90;;;;;;5016056;28;20477;-75
2023/10/20 05:11:19;;;;;;;13.87;10.97;;;15.90;99.90;;;;;;5016065;28;20407;-76
2023/10/20 05:13:45;;;;;;;17.23;13.50;;;16.00;99.90;;;;;;5014808;28;20766;-76
2023/10/20 05:16:12;;;;;;;8.40;6.27;;;16.00;99.90;;;;;;5014828;28;20497;-76
2023/10/20 05:18:39;;;;;;;5.10;4.60;;;16.00;99.90;;;;;;5015833;28;20403;-76
2023/10/20 05:21:08;;;;;;;5.53;5.13;;;16.00;99.90;;;;;;5015568;28;20406;-75
2023/10/20 05:23:36;;;;;;;4.87;4.37;;;16.10;99.90;;;;;;5015765;28;20430;-76
2023/10/20 05:26:02;;;;;;;4.87;4.43;;;16.10;99.90;;;;;;5015748;28;20407;-75
2023/10/20 05:28:29;;;;;;;4.87;4.30;;;16.10;99.90;;;;;;5015969;28;20493;-76
2023/10/20 05:30:54;;;;;;;5.30;4.77;;;16.10;99.90;;;;;;5015518;28;20401;-75
2023/10/20 05:33:20;;;;;;;9.60;4.50;;;16.10;99.90;;;;;;5015519;28;20422;-75
2023/10/20 05:35:46;;;;;;;4.97;4.37;;;16.10;99.90;;;;;;5014273;28;20222;-76
2023/10/20 05:38:12;;;;;;;4.37;4.00;;;16.10;99.90;;;;;;5015645;28;20188;-75
2023/10/20 05:40:37;;;;;;;5.93;4.60;;;16.10;99.90;;;;;;5015681;28;20898;-76
2023/10/20 05:43:05;;;;;;;4.27;3.30;;;16.10;99.90;;;;;;5015822;28;20172;-76
2023/10/20 05:45:37;;;;;;;4.27;3.80;;;16.00;99.90;;;;;;5015879;28;20520;-75
2023/10/20 05:48:05;;;;;;;4.90;3.80;;;16.10;99.90;;;;;;4998387;28;20461;-75
2023/10/20 05:50:33;;;;;;;10.70;7.53;;;16.10;99.90;;;;;;5015635;28;20422;-76
2023/10/20 05:52:59;;;;;;;6.87;6.17;;;16.10;99.90;;;;;;5015618;28;20415;-76
2023/10/20 05:55:25;;;;;;;4.33;3.93;;;16.10;99.90;;;;;;5015851;28;20407;-75
2023/10/20 05:57:51;;;;;;;3.80;2.97;;;16.00;99.90;;;;;;5015535;28;20192;-75
2023/10/20 06:00:16;;;;;;;4.07;3.43;;;16.00;99.90;;;;;;5015482;28;20434;-76
2023/10/20 06:02:44;;;;;;;4.40;4.00;;;16.00;99.90;;;;;;5015452;28;20168;-76
2023/10/20 06:05:09;;;;;;;4.87;3.50;;;16.00;99.90;;;;;;5015320;28;20180;-76
2023/10/20 06:07:35;;;;;;;4.67;3.23;;;16.10;99.90;;;;;;5015106;28;20469;-75
2023/10/20 06:10:01;;;;;;;3.30;3.00;;;16.00;99.90;;;;;;5015535;28;20168;-75
2023/10/20 06:12:26;;;;;;;5.10;3.60;;;16.10;99.90;;;;;;5015218;28;20178;-76
2023/10/20 06:14:52;;;;;;;4.47;4.00;;;16.10;99.90;;;;;;5015382;28;20164;-75
2023/10/20 06:17:18;;;;;;;3.90;2.67;;;16.00;99.90;;;;;;5015134;28;20282;-75
2023/10/20 06:19:48;;;;;;;3.83;3.47;;;16.10;99.90;;;;;;5014998;28;20176;-76
2023/10/20 06:22:13;;;;;;;2.77;2.57;;;16.10;99.90;;;;;;5014948;28;20832;-76
2023/10/20 06:24:39;;;;;;;2.83;2.60;;;16.10;99.90;;;;;;5015402;28;20411;-75
2023/10/20 06:27:05;;;;;;;6.20;3.30;;;16.10;99.90;;;;;;5013491;28;20575;-75
2023/10/20 06:34:43;;;;;;;6.13;5.53;;;16.20;99.90;;;;;;5015261;28;20422;-76
2023/10/20 06:37:08;;;;;;;4.40;4.00;;;16.10;99.90;;;;;;5013341;28;20970;-76
2023/10/20 06:39:38;;;;;;;5.00;4.00;;;16.10;99.90;;;;;;5014603;28;20640;-76
2023/10/20 06:42:07;;;;;;;3.30;2.90;;;16.20;99.90;;;;;;5015100;28;20674;-75
2023/10/20 06:44:34;;;;;;;3.60;3.03;;;16.20;99.90;;;;;;5014764;28;20926;-76
2023/10/20 06:47:00;;;;;;;4.13;2.70;;;16.20;99.90;;;;;;5014631;28;20486;-76
2023/10/20 06:49:26;;;;;;;3.40;3.10;;;16.20;99.90;;;;;;5014282;28;20399;-76
2023/10/20 06:51:51;;;;;;;4.33;2.80;;;16.10;99.90;;;;;;5014704;28;20406;-75
2023/10/20 06:54:17;;;;;;;4.47;3.00;;;16.20;99.90;;;;;;5014237;28;20399;-75
2023/10/20 06:56:43;;;;;;;4.50;3.80;;;16.20;99.90;;;;;;5014483;28;20227;-76
2023/10/20 06:59:13;;;;;;;3.13;2.80;;;16.20;99.90;;;;;;5014497;28;20160;-76
2023/10/20 07:01:41;;;;;;;3.73;3.40;;;16.20;99.90;;;;;;5014274;28;20399;-76
2023/10/20 07:04:10;;;;;;;5.90;3.40;;;16.20;99.90;;;;;;5014322;28;20410;-75
2023/10/20 07:06:40;;;;;;;4.03;3.50;;;16.20;99.90;;;;;;5014225;28;20905;-76
2023/10/20 07:09:12;;;;;;;4.53;3.43;;;16.20;99.90;;;;;;5014022;28;20940;-75
2023/10/20 07:11:38;;;;;;;3.23;2.83;;;16.20;99.90;;;;;;5014040;28;20403;-76
2023/10/20 07:14:07;;;;;;;3.10;2.67;;;16.30;99.90;;;;;;5014080;28;20391;-75
2023/10/20 07:16:35;;;;;;;4.07;3.40;;;16.30;99.90;;;;;;5013940;28;20450;-76
2023/10/20 07:19:01;;;;;;;4.80;4.23;;;16.30;99.90;;;;;;4995423;28;20402;-71
2023/10/20 07:21:27;;;;;;;3.47;3.17;;;16.30;99.90;;;;;;5013169;28;20852;-72
2023/10/20 07:23:53;;;;;;;3.23;3.03;;;16.30;99.90;;;;;;5012022;28;20486;-72
2023/10/20 07:26:19;;;;;;;6.10;3.37;;;16.30;99.90;;;;;;5013090;28;20276;-72
2023/10/20 07:28:45;;;;;;;5.27;4.00;;;16.30;99.90;;;;;;5013158;28;20719;-71
2023/10/20 07:31:15;;;;;;;3.53;3.23;;;16.40;99.90;;;;;;5013022;28;20761;-70
2023/10/20 07:33:41;;;;;;;5.13;4.30;;;16.40;99.90;;;;;;5012930;28;20406;-70
2023/10/20 07:36:07;;;;;;;6.90;3.57;;;16.40;99.90;;;;;;5011609;28;20530;-71
2023/10/20 07:38:32;;;;;;;8.97;4.57;;;16.30;99.90;;;;;;5013030;28;20175;-71
2023/10/20 07:41:09;;;;;;;4.77;4.37;;;16.30;99.90;;;;;;5012796;28;20168;-71
2023/10/20 07:43:34;;;;;;;4.13;3.83;;;16.30;99.90;;;;;;4995290;28;20199;-71
2023/10/20 07:46:00;;;;;;;4.70;4.30;;;16.40;99.90;;;;;;5012939;28;20446;-71
2023/10/20 07:48:26;;;;;;;4.77;3.97;;;16.40;99.90;;;;;;5011474;28;20748;-72
2023/10/20 07:50:52;;;;;;;4.87;4.37;;;16.40;99.90;;;;;;5011444;28;20168;-71
2023/10/20 07:53:21;;;;;;;5.20;3.80;;;16.40;99.90;;;;;;5012709;28;20160;-71
2023/10/20 07:55:46;;;;;;;6.30;4.77;;;16.50;99.90;;;;;;5012593;28;20534;-71
2023/10/20 07:58:12;;;;;;;4.90;4.40;;;16.50;99.90;;;;;;5012499;28;20445;-72
2023/10/20 08:00:37;;;;;;;5.07;4.40;;;16.50;99.90;;;;;;5012447;28;20168;-71
2023/10/20 08:03:03;;;;;;;5.33;4.23;;;16.50;99.90;;;;;;5012470;28;20168;-71
2023/10/20 08:05:29;;;;;;;11.87;5.77;;;16.50;99.90;;;;;;5012555;28;20180;-71
2023/10/20 08:08:01;;;;;;;4.90;4.43;;;16.50;99.90;;;;;;5012182;28;20601;-71
2023/10/20 08:10:27;;;;;;;6.30;5.40;;;16.60;99.90;;;;;;5012334;28;20171;-71
2023/10/20 08:12:53;;;;;;;5.63;4.90;;;16.60;99.90;;;;;;5012451;28;20407;-71
2023/10/20 08:15:19;;;;;;;5.60;4.00;;;16.60;99.90;;;;;;5012330;28;20486;-71
2023/10/20 08:17:46;;;;;;;4.90;4.40;;;16.70;99.90;;;;;;5011009;28;20450;-71
2023/10/20 08:20:12;;;;;;;6.30;4.57;;;16.70;99.90;;;;;;5012319;28;20429;-71
2023/10/20 08:22:38;;;;;;;5.27;4.77;;;16.70;99.90;;;;;;5011747;28;20473;-71
2023/10/20 08:25:04;;;;;;;5.77;5.17;;;16.70;99.90;;;;;;5012303;28;20415;-71
2023/10/20 08:27:30;;;;;;;6.50;5.90;;;16.80;99.90;;;;;;5012143;28;20481;-71
2023/10/20 08:29:56;;;;;;;8.03;5.80;;;16.80;99.90;;;;;;5012190;28;20414;-70
2023/10/20 08:32:25;;;;;;;7.60;6.90;;;16.80;99.90;;;;;;4994658;28;20992;-71
2023/10/20 08:34:51;;;;;;;5.97;5.47;;;16.90;99.90;;;;;;5011109;28;20815;-71
2023/10/20 08:37:17;;;;;;;6.73;5.80;;;16.90;99.90;;;;;;5011973;28;20453;-71
2023/10/20 08:39:46;;;;;;;5.40;4.80;;;17.00;99.90;;;;;;5011903;28;20169;-71
2023/10/20 08:42:19;;;;;;;6.73;5.30;;;17.00;99.90;;;;;;4994457;28;20418;-71
2023/10/20 08:44:46;;;;;;;5.53;5.03;;;17.00;99.90;;;;;;5012164;28;20411;-72
2023/10/20 08:47:15;;;;;;;7.83;5.60;;;17.00;99.90;;;;;;5012106;28;20865;-71
2023/10/20 08:49:42;;;;;;;7.60;5.40;;;16.90;99.90;;;;;;5010677;28;20410;-72
2023/10/20 08:52:10;;;;;;;6.37;5.53;;;16.90;99.90;;;;;;5012011;28;20399;-72
2023/10/20 08:54:36;;;;;;;6.27;5.10;;;16.90;99.90;;;;;;5009516;28;20411;-72
2023/10/20 08:57:03;;;;;;;5.93;5.13;;;16.90;99.90;;;;;;5004281;28;20447;-72
2023/10/20 08:59:28;;;;;;;6.80;5.43;;;16.80;99.90;;;;;;5009209;28;20458;-72
2023/10/20 09:01:54;;;;;;;6.43;5.80;;;16.80;99.90;;;;;;5011540;28;20493;-71
2023/10/20 09:04:22;;;;;;;8.93;5.57;;;16.80;99.90;;;;;;5011614;28;20531;-72
2023/10/20 09:06:48;;;;;;;6.13;5.53;;;16.80;99.90;;;;;;5011612;28;20427;-72
2023/10/20 09:09:14;;;;;;;7.73;5.60;;;16.80;99.90;;;;;;5011871;28;20905;-72
2023/10/20 09:11:43;;;;;;;8.00;6.20;;;16.80;99.90;;;;;;5011609;28;20435;-72
2023/10/20 09:14:13;;;;;;;5.27;4.77;;;16.90;99.90;;;;;;5011941;28;20817;-72
2023/10/20 09:16:42;;;;;;;6.40;5.77;;;16.90;99.90;;;;;;5011666;28;20450;-71
2023/10/20 09:19:11;;;;;;;5.50;4.97;;;16.80;99.90;;;;;;5011816;28;20407;-71
2023/10/20 09:21:41;;;;;;;5.70;4.73;;;16.80;99.90;;;;;;5011515;28;20415;-72
2023/10/20 09:24:08;;;;;;;5.53;5.03;;;16.90;99.90;;;;;;5026941;28;20458;-73
2023/10/20 09:26:36;;;;;;;7.60;6.10;;;16.90;99.90;;;;;;5011513;28;20498;-72
2023/10/20 09:29:05;;;;;;;6.50;5.83;;;16.90;99.90;;;;;;5011824;28;21010;-71
2023/10/20 09:31:30;;;;;;;6.73;5.97;;;16.80;99.90;;;;;;5011471;28;20984;-71
2023/10/20 09:33:56;;;;;;;5.40;4.80;;;16.90;99.90;;;;;;5011820;28;20510;-71
2023/10/20 09:36:23;;;;;;;9.23;5.97;;;16.90;99.90;;;;;;5011378;28;20578;-71
2023/10/20 09:38:53;;;;;;;6.10;5.50;;;17.00;99.90;;;;;;5011644;28;20165;-71
2023/10/20 09:41:23;;;;;;;6.20;4.97;;;17.00;99.90;;;;;;5010530;28;20938;-71
2023/10/20 09:43:58;;;;;;;5.60;5.10;;;17.00;99.90;;;;;;5015171;28;20502;-72
2023/10/20 09:46:36;;;;;;;5.77;5.27;;;17.00;99.90;;;;;;5015218;28;20422;-71
2023/10/20 09:49:15;;;;;;;6.97;5.87;;;17.00;99.90;;;;;;5015085;28;20450;-71
2023/10/20 09:51:44;;;;;;;6.10;5.50;;;17.00;99.90;;;;;;5015356;28;20494;-71
2023/10/20 09:54:11;;;;;;;6.43;5.37;;;17.00;99.90;;;;;;5014960;28;20439;-71
2023/10/20 09:56:37;;;;;;;8.00;5.27;;;17.10;99.90;;;;;;5014779;28;20480;-71
2023/10/20 09:59:05;;;;;;;6.80;5.63;;;17.00;99.90;;;;;;5014882;28;20395;-71
2023/10/20 10:01:31;;;;;;;6.10;4.93;;;17.10;99.90;;;;;;5029880;28;20421;-71
2023/10/20 10:04:03;;;;;;;5.77;5.17;;;17.10;99.90;;;;;;5014747;28;20415;-71
2023/10/20 10:06:37;;;;;;;6.40;5.10;;;17.20;99.90;;;;;;5014606;28;20184;-71
2023/10/20 10:09:04;;;;;;;6.33;5.20;;;17.20;99.90;;;;;;5014653;28;20669;-71
2023/10/20 10:11:30;;;;;;;5.40;4.90;;;17.20;99.90;;;;;;5013145;28;20838;-71
2023/10/20 10:14:01;;;;;;;5.30;4.80;;;17.20;99.90;;;;;;5014604;28;20411;-71
2023/10/20 10:16:27;;;;;;;7.00;4.90;;;17.30;99.90;;;;;;5014505;28;20420;-71
2023/10/20 10:18:56;;;;;;;7.20;5.60;;;17.40;99.90;;;;;;5014540;28;20403;-71
2023/10/20 10:21:29;;;;;;;5.83;5.23;;;17.40;99.90;;;;;;5014229;28;20411;-71
2023/10/20 10:24:11;;;;;;;8.90;5.17;;;17.50;99.90;;;;;;5029576;28;20477;-71
2023/10/20 10:26:53;;;;;;;6.10;5.50;;;17.60;99.90;;;;;;5012930;28;20530;-71
2023/10/20 10:29:20;;;;;;;5.07;4.57;;;17.80;99.90;;;;;;5014350;28;20835;-71
2023/10/20 10:31:47;;;;;;;6.93;4.67;;;17.80;99.90;;;;;;5029445;28;20718;-71
2023/10/20 10:34:14;;;;;;;5.87;4.27;;;18.00;99.90;;;;;;5014340;28;20395;-71
2023/10/20 10:36:44;;;;;;;6.33;4.77;;;18.30;99.90;;;;;;5013938;28;20443;-71
2023/10/20 10:39:24;;;;;;;6.60;4.40;;;18.70;99.90;;;;;;5014229;28;20407;-71
2023/10/20 10:41:52;;;;;;;4.80;4.30;;;19.00;99.90;;;;;;5014129;28;20399;-71
2023/10/20 10:44:19;;;;;;;4.20;3.73;;;19.10;99.90;;;;;;5013963;28;20395;-71
2023/10/20 10:46:47;;;;;;;4.47;4.07;;;19.00;99.90;;;;;;5013863;28;20431;-71
2023/10/20 10:49:13;;;;;;;5.10;4.13;;;18.90;99.90;;;;;;5013926;28;20426;-71
2023/10/20 10:51:46;;;;;;;7.37;4.20;;;18.80;99.90;;;;;;5013658;28;20422;-71
2023/10/20 10:54:13;;;;;;;5.40;4.30;;;18.70;99.90;;;;;;5027970;28;20415;-70
2023/10/20 10:56:41;;;;;;;4.53;4.13;;;18.70;99.90;;;;;;5013621;28;20446;-71
2023/10/20 10:59:10;;;;;;;5.20;4.67;;;18.70;99.90;;;;;;5013718;28;20420;-71
2023/10/20 11:01:40;;;;;;;4.70;4.03;;;18.50;99.90;;;;;;5013686;28;20412;-71
2023/10/20 11:04:08;;;;;;;4.77;4.27;;;18.50;99.90;;;;;;5014029;28;20825;-70
2023/10/20 11:06:37;;;;;;;4.70;4.10;;;18.30;99.90;;;;;;5013525;28;20968;-71
2023/10/20 11:09:07;;;;;;;4.20;3.80;;;18.20;99.90;;;;;;5013547;28;20984;-71
2023/10/20 11:11:38;;;;;;;4.57;4.17;;;18.10;99.90;;;;;;5013321;28;20414;-70
2023/10/20 11:14:04;;;;;;;5.47;4.30;;;18.00;99.90;;;;;;5013586;28;20455;-70
2023/10/20 11:16:29;;;;;;;4.90;4.20;;;17.80;99.90;;;;;;5013311;28;20428;-71
2023/10/20 11:18:55;;;;;;;4.23;3.83;;;17.80;99.90;;;;;;5013351;28;20183;-70
2023/10/20 11:21:21;;;;;;;4.73;3.60;;;17.70;99.90;;;;;;5013238;28;20168;-70
2023/10/20 11:23:51;;;;;;;5.50;4.87;;;17.60;99.90;;;;;;5013148;28;20210;-72
2023/10/20 11:26:17;;;;;;;6.00;5.23;;;17.50;99.90;;;;;;5028484;28;20199;-72
2023/10/20 11:28:44;;;;;;;6.03;4.60;;;17.40;99.90;;;;;;5011863;28;20462;-71
2023/10/20 11:31:11;;;;;;;7.87;5.33;;;17.40;99.90;;;;;;5012989;28;20243;-73
2023/10/20 11:33:37;;;;;;;4.07;3.67;;;17.40;99.90;;;;;;5013104;28;20544;-70
2023/10/20 11:36:04;;;;;;;6.03;4.67;;;17.40;99.90;;;;;;5012921;28;21004;-69
2023/10/20 11:38:30;;;;;;;5.30;4.30;;;17.40;99.90;;;;;;5012913;28;20175;-70
2023/10/20 11:40:55;;;;;;;7.63;4.93;;;17.50;99.90;;;;;;5012837;28;20486;-70
2023/10/20 11:43:21;;;;;;;6.07;4.70;;;17.50;99.90;;;;;;5012921;28;20221;-70
2023/10/20 11:45:46;;;;;;;4.77;4.10;;;17.60;99.90;;;;;;5028160;28;20176;-70
2023/10/20 11:48:12;;;;;;;8.77;4.67;;;17.60;99.90;;;;;;5012803;28;20683;-70
2023/10/20 11:50:37;;;;;;;5.53;4.90;;;17.50;99.90;;;;;;5012683;28;20532;-70
2023/10/20 11:53:03;;;;;;;5.10;4.60;;;17.50;99.90;;;;;;5011413;28;20171;-73
2023/10/20 11:55:29;;;;;;;4.73;4.33;;;17.40;99.90;;;;;;5012830;28;20171;-69
2023/10/20 11:57:54;;;;;;;7.43;4.67;;;17.30;99.90;;;;;;5012529;28;20485;-69
2023/10/20 12:00:21;;;;;;;5.10;4.57;;;17.20;99.90;;;;;;5012537;28;20640;-69
2023/10/20 12:02:47;;;;;;;5.60;4.93;;;17.20;99.90;;;;;;5012612;28;20582;-72
2023/10/20 12:05:13;;;;;;;4.57;4.17;;;17.10;99.90;;;;;;5012386;28;20498;-72
2023/10/20 12:07:38;;;;;;;4.30;3.90;;;17.00;99.90;;;;;;5027449;28;20200;-72
2023/10/20 12:10:05;;;;;;;7.30;4.87;;;17.00;99.90;;;;;;5012378;28;20168;-70
2023/10/20 12:12:31;;;;;;;5.67;5.07;;;17.00;99.90;;;;;;5012546;28;20172;-70
2023/10/20 12:14:56;;;;;;;4.50;4.13;;;17.00;99.90;;;;;;5027640;28;20786;-71
2023/10/20 12:17:24;;;;;;;6.07;5.13;;;16.90;99.90;;;;;;5027422;28;20439;-70
2023/10/20 12:19:50;;;;;;;7.93;5.57;;;16.80;99.90;;;;;;5012244;28;20171;-71
2023/10/20 12:22:16;;;;;;;5.93;5.33;;;16.80;99.90;;;;;;5010919;28;20425;-71
2023/10/20 12:24:41;;;;;;;8.33;5.40;;;16.80;99.90;;;;;;5027470;28;20500;-71
2023/10/20 12:27:09;;;;;;;6.00;5.50;;;16.80;99.90;;;;;;5012121;28;20957;-71
2023/10/20 12:29:35;;;;;;;6.00;5.40;;;16.80;99.90;;;;;;5012168;28;20156;-71
2023/10/20 12:32:02;;;;;;;5.37;4.87;;;16.90;99.90;;;;;;5012376;28;20410;-71
2023/10/20 12:34:28;;;;;;;6.47;5.87;;;17.00;99.90;;;;;;5012230;28;20167;-72
2023/10/20 12:36:53;;;;;;;4.93;4.53;;;17.00;99.90;;;;;;5011865;28;20814;-71
2023/10/20 12:39:20;;;;;;;5.93;5.20;;;17.00;99.90;;;;;;5012419;28;20164;-72
2023/10/20 12:41:46;;;;;;;6.37;5.50;;;17.00;99.90;;;;;;5012312;28;20615;-71
2023/10/20 12:44:12;;;;;;;9.43;5.47;;;17.00;99.90;;;;;;5012163;28;20511;-71
2023/10/20 12:46:38;;;;;;;8.10;5.57;;;17.00;99.90;;;;;;5012067;28;21010;-71
2023/10/20 12:49:06;;;;;;;7.43;5.83;;;16.80;99.90;;;;;;5011999;28;20545;-71
2023/10/20 12:51:33;;;;;;;6.27;5.60;;;16.80;99.90;;;;;;5011838;28;20167;-71
2023/10/20 12:53:59;;;;;;;6.33;5.83;;;16.80;99.90;;;;;;5012045;28;20395;-71
2023/10/20 12:56:26;;;;;;;6.70;5.83;;;16.70;99.90;;;;;;5027069;28;20423;-71
2023/10/20 12:58:51;;;;;;;7.40;6.00;;;16.70;99.90;;;;;;5011899;28;20188;-71
2023/10/20 13:01:16;;;;;;;6.00;5.53;;;16.80;99.90;;;;;;5027025;28;20441;-71
2023/10/20 13:03:42;;;;;;;6.50;5.90;;;16.70;99.90;;;;;;5011915;28;20172;-71
2023/10/20 13:06:08;;;;;;;7.43;6.23;;;16.80;99.90;;;;;;5011797;28;20472;-71
2023/10/20 13:08:33;;;;;;;7.80;6.77;;;16.80;99.90;;;;;;5011758;28;20195;-71
2023/10/20 13:10:59;;;;;;;8.30;7.40;;;16.80;99.90;;;;;;5011700;28;20644;-71
2023/10/20 13:13:24;;;;;;;7.93;6.90;;;16.90;99.90;;;;;;5011857;28;20222;-71